sensor_id;sensor_type;location;lat;lon;timestamp;pressure;altitude;pressure_sealevel;temperature;humidity
4858;BME280;58975;51.978;8.472;2023-01-15T00:01:57;98492.41;;;5.83;100.00
4858;BME280;58975;51.978;8.472;2023-01-15T00:06:54;98495.47;;;5.79;100.00
4858;BME280;58975;51.978;8.472;2023-01-15T00:11:50;98509.91;;;5.65;100.00
4858;BME280;58975;51.978;8.472;2023-01-15T00:16:50;98515.75;;;5.49;100.00
4858;BME280;58975;51.978;8.472;2023-01-15T00:21:47;98511.97;;;5.33;100.00
4858;BME280;58975;51.978;8.472;2023-01-15T00:26:43;98537.66;;;5.21;100.00
4858;BME280;58975;51.978;8.472;2023-01-15T00:32:04;98541.75;;;5.04;100.00
4858;BME280;58975;51.978;8.472;2023-01-15T00:37:01;98562.81;;;4.95;100.00
4858;BME280;58975;51.978;8.472;2023-01-15T00:41:58;98576.66;;;4.87;100.00
4858;BME280;58975;51.978;8.472;2023-01-15T00:46:54;98582.22;;;4.84;100.00
4858;BME280;58975;51.978;8.472;2023-01-15T00:51:50;98594.66;;;4.72;100.00
4858;BME280;58975;51.978;8.472;2023-01-15T00:56:46;98609.06;;;4.48;100.00
4858;BME280;58975;51.978;8.472;2023-01-15T01:01:43;98617.78;;;4.27;100.00
4858;BME280;58975;51.978;8.472;2023-01-15T01:06:40;98623.84;;;4.18;100.00
4858;BME280;58975;51.978;8.472;2023-01-15T01:11:36;98613.56;;;4.04;100.00
4858;BME280;58975;51.978;8.472;2023-01-15T01:16:35;98602.13;;;3.94;100.00
4858;BME280;58975;51.978;8.472;2023-01-15T01:21:33;98618.19;;;3.91;100.00
4858;BME280;58975;51.978;8.472;2023-01-15T01:26:30;98601.28;;;3.94;100.00
4858;BME280;58975;51.978;8.472;2023-01-15T01:31:26;98597.13;;;3.91;100.00
4858;BME280;58975;51.978;8.472;2023-01-15T01:36:28;98595.19;;;3.93;100.00
4858;BME280;58975;51.978;8.472;2023-01-15T01:41:26;98593.28;;;3.95;100.00
4858;BME280;58975;51.978;8.472;2023-01-15T01:46:23;98594.94;;;3.96;100.00
4858;BME280;58975;51.978;8.472;2023-01-15T01:51:23;98598.97;;;4.11;100.00
4858;BME280;58975;51.978;8.472;2023-01-15T01:56:22;98596.81;;;4.05;100.00
4858;BME280;58975;51.978;8.472;2023-01-15T02:01:21;98604.72;;;4.05;100.00
4858;BME280;58975;51.978;8.472;2023-01-15T02:06:21;98607.94;;;4.09;100.00
4858;BME280;58975;51.978;8.472;2023-01-15T02:11:21;98600.63;;;4.12;100.00
4858;BME280;58975;51.978;8.472;2023-01-15T02:17:05;98589.59;;;4.18;100.00
4858;BME280;58975;51.978;8.472;2023-01-15T02:21:49;98581.88;;;4.26;100.00
4858;BME280;58975;51.978;8.472;2023-01-15T02:26:57;98579.69;;;4.32;100.00
4858;BME280;58975;51.978;8.472;2023-01-15T02:31:58;98569.41;;;4.28;100.00
4858;BME280;58975;51.978;8.472;2023-01-15T02:37:02;98576.91;;;4.33;100.00
4858;BME280;58975;51.978;8.472;2023-01-15T02:42:03;98573.81;;;4.28;100.00
4858;BME280;58975;51.978;8.472;2023-01-15T02:47:03;98566.06;;;4.26;100.00
4858;BME280;58975;51.978;8.472;2023-01-15T02:52:13;98574.66;;;4.28;100.00
4858;BME280;58975;51.978;8.472;2023-01-15T02:57:12;98569.41;;;4.28;100.00
4858;BME280;58975;51.978;8.472;2023-01-15T03:02:13;98572.75;;;4.31;100.00
4858;BME280;58975;51.978;8.472;2023-01-15T03:07:17;98548.06;;;4.32;100.00
4858;BME280;58975;51.978;8.472;2023-01-15T03:12:28;98550.69;;;4.32;100.00
4858;BME280;58975;51.978;8.472;2023-01-15T03:17:52;98551.88;;;4.39;100.00
4858;BME280;58975;51.978;8.472;2023-01-15T03:22:53;98550.69;;;4.52;100.00
4858;BME280;58975;51.978;8.472;2023-01-15T03:27:53;98530.69;;;4.50;100.00
4858;BME280;58975;51.978;8.472;2023-01-15T03:32:52;98544.75;;;4.60;100.00
4858;BME280;58975;51.978;8.472;2023-01-15T03:37:49;98518.13;;;4.63;100.00
4858;BME280;58975;51.978;8.472;2023-01-15T03:42:49;98517.72;;;4.67;100.00
4858;BME280;58975;51.978;8.472;2023-01-15T03:48:11;98511.63;;;4.67;100.00
4858;BME280;58975;51.978;8.472;2023-01-15T04:03:18;98505.56;;;4.76;100.00
4858;BME280;58975;51.978;8.472;2023-01-15T04:08:15;98515.53;;;4.72;100.00
4858;BME280;58975;51.978;8.472;2023-01-15T04:13:13;98519.72;;;4.75;100.00
4858;BME280;58975;51.978;8.472;2023-01-15T04:18:10;98514.19;;;4.78;100.00
4858;BME280;58975;51.978;8.472;2023-01-15T04:23:06;98524.75;;;4.78;100.00
4858;BME280;58975;51.978;8.472;2023-01-15T04:28:02;98501.97;;;4.77;100.00
4858;BME280;58975;51.978;8.472;2023-01-15T04:32:59;98506.41;;;4.76;100.00
4858;BME280;58975;51.978;8.472;2023-01-15T04:37:57;98508.06;;;4.78;100.00
4858;BME280;58975;51.978;8.472;2023-01-15T04:42:54;98513.66;;;4.84;100.00
4858;BME280;58975;51.978;8.472;2023-01-15T04:48:09;98521.28;;;4.87;100.00
4858;BME280;58975;51.978;8.472;2023-01-15T04:53:07;98519.59;;;4.86;100.00
4858;BME280;58975;51.978;8.472;2023-01-15T04:58:04;98507.25;;;4.87;100.00
4858;BME280;58975;51.978;8.472;2023-01-15T05:03:00;98514.47;;;4.85;100.00
4858;BME280;58975;51.978;8.472;2023-01-15T05:07:57;98531.16;;;4.85;100.00
4858;BME280;58975;51.978;8.472;2023-01-15T05:12:53;98525.72;;;4.87;100.00
4858;BME280;58975;51.978;8.472;2023-01-15T05:17:50;98519.88;;;4.83;100.00
4858;BME280;58975;51.978;8.472;2023-01-15T05:22:46;98508.66;;;4.81;100.00
4858;BME280;58975;51.978;8.472;2023-01-15T05:27:42;98516.16;;;4.86;100.00
4858;BME280;58975;51.978;8.472;2023-01-15T05:32:39;98517.69;;;4.88;100.00
4858;BME280;58975;51.978;8.472;2023-01-15T05:37:35;98526.56;;;4.87;100.00
4858;BME280;58975;51.978;8.472;2023-01-15T05:42:32;98525.16;;;4.83;100.00
4858;BME280;58975;51.978;8.472;2023-01-15T05:47:28;98528.50;;;4.85;100.00
4858;BME280;58975;51.978;8.472;2023-01-15T05:52:24;98532.94;;;4.85;100.00
4858;BME280;58975;51.978;8.472;2023-01-15T05:57:21;98537.56;;;4.92;100.00
4858;BME280;58975;51.978;8.472;2023-01-15T06:02:17;98544.63;;;4.92;100.00
4858;BME280;58975;51.978;8.472;2023-01-15T06:07:13;98540.47;;;4.89;100.00
4858;BME280;58975;51.978;8.472;2023-01-15T06:12:12;98551.97;;;4.88;100.00
4858;BME280;58975;51.978;8.472;2023-01-15T06:17:08;98543.09;;;4.89;100.00
4858;BME280;58975;51.978;8.472;2023-01-15T06:22:05;98538.66;;;4.90;100.00
4858;BME280;58975;51.978;8.472;2023-01-15T06:27:01;98540.84;;;4.85;100.00
4858;BME280;58975;51.978;8.472;2023-01-15T06:31:57;98545.03;;;4.87;100.00
4858;BME280;58975;51.978;8.472;2023-01-15T06:36:54;98546.69;;;4.88;100.00
4858;BME280;58975;51.978;8.472;2023-01-15T06:41:50;98551.53;;;4.83;100.00
4858;BME280;58975;51.978;8.472;2023-01-15T06:47:14;98537.50;;;4.83;100.00
4858;BME280;58975;51.978;8.472;2023-01-15T06:52:17;98537.25;;;4.86;100.00
4858;BME280;58975;51.978;8.472;2023-01-15T06:57:14;98534.75;;;4.84;100.00
4858;BME280;58975;51.978;8.472;2023-01-15T07:02:10;98545.69;;;4.80;100.00
4858;BME280;58975;51.978;8.472;2023-01-15T07:07:07;98552.25;;;4.85;100.00
4858;BME280;58975;51.978;8.472;2023-01-15T07:12:03;98544.59;;;4.82;100.00
4858;BME280;58975;51.978;8.472;2023-01-15T07:17:00;98548.63;;;4.86;100.00
4858;BME280;58975;51.978;8.472;2023-01-15T07:21:56;98555.06;;;4.93;100.00
4858;BME280;58975;51.978;8.472;2023-01-15T07:26:52;98547.81;;;4.95;100.00
4858;BME280;58975;51.978;8.472;2023-01-15T07:31:49;98548.66;;;4.96;100.00
4858;BME280;58975;51.978;8.472;2023-01-15T07:36:46;98541.72;;;4.95;100.00
4858;BME280;58975;51.978;8.472;2023-01-15T07:41:42;98547.97;;;4.94;100.00
4858;BME280;58975;51.978;8.472;2023-01-15T07:46:57;98542.28;;;4.98;100.00
4858;BME280;58975;51.978;8.472;2023-01-15T07:52:17;98543.00;;;5.00;100.00
4858;BME280;58975;51.978;8.472;2023-01-15T07:57:17;98544.69;;;5.01;100.00
4858;BME280;58975;51.978;8.472;2023-01-15T08:02:14;98535.59;;;4.94;100.00
4858;BME280;58975;51.978;8.472;2023-01-15T08:07:10;98549.38;;;4.98;100.00
4858;BME280;58975;51.978;8.472;2023-01-15T08:12:09;98553.72;;;5.08;100.00
4858;BME280;58975;51.978;8.472;2023-01-15T08:17:24;98555.97;;;5.13;100.00
4858;BME280;58975;51.978;8.472;2023-01-15T08:22:20;98563.31;;;5.09;100.00
4858;BME280;58975;51.978;8.472;2023-01-15T08:27:17;98567.09;;;5.16;100.00
4858;BME280;58975;51.978;8.472;2023-01-15T08:32:13;98568.59;;;5.19;100.00
4858;BME280;58975;51.978;8.472;2023-01-15T08:37:10;98569.56;;;5.18;100.00
4858;BME280;58975;51.978;8.472;2023-01-15T08:42:06;98564.72;;;5.13;100.00
4858;BME280;58975;51.978;8.472;2023-01-15T08:47:03;98580.19;;;4.97;100.00
4858;BME280;58975;51.978;8.472;2023-01-15T08:52:00;98581.25;;;4.85;100.00
4858;BME280;58975;51.978;8.472;2023-01-15T08:56:58;98592.97;;;4.71;100.00
4858;BME280;58975;51.978;8.472;2023-01-15T09:01:54;98585.44;;;4.67;100.00
4858;BME280;58975;51.978;8.472;2023-01-15T09:06:51;98600.44;;;4.66;100.00
4858;BME280;58975;51.978;8.472;2023-01-15T09:11:48;98600.69;;;4.63;100.00
4858;BME280;58975;51.978;8.472;2023-01-15T09:16:44;98607.06;;;4.61;100.00
4858;BME280;58975;51.978;8.472;2023-01-15T09:21:41;98605.66;;;4.57;100.00
4858;BME280;58975;51.978;8.472;2023-01-15T09:26:39;98602.19;;;4.56;100.00
4858;BME280;58975;51.978;8.472;2023-01-15T09:31:35;98608.81;;;4.51;100.00
4858;BME280;58975;51.978;8.472;2023-01-15T09:36:33;98605.91;;;4.54;100.00
4858;BME280;58975;51.978;8.472;2023-01-15T09:41:50;98616.78;;;4.60;100.00
4858;BME280;58975;51.978;8.472;2023-01-15T09:47:17;98611.81;;;4.67;100.00
4858;BME280;58975;51.978;8.472;2023-01-15T09:52:49;98618.25;;;4.74;100.00
4858;BME280;58975;51.978;8.472;2023-01-15T09:57:53;98606.78;;;4.85;100.00
4858;BME280;58975;51.978;8.472;2023-01-15T10:08:11;98611.31;;;5.03;100.00
4858;BME280;58975;51.978;8.472;2023-01-15T10:13:26;98602.25;;;5.27;100.00
4858;BME280;58975;51.978;8.472;2023-01-15T10:18:25;98599.94;;;5.43;100.00
4858;BME280;58975;51.978;8.472;2023-01-15T10:23:32;98604.25;;;5.53;100.00
4858;BME280;58975;51.978;8.472;2023-01-15T10:34:02;98601.34;;;5.47;100.00
4858;BME280;58975;51.978;8.472;2023-01-15T10:39:15;98611.66;;;5.59;100.00
4858;BME280;58975;51.978;8.472;2023-01-15T10:49:35;98618.97;;;5.86;100.00
4858;BME280;58975;51.978;8.472;2023-01-15T10:54:42;98619.41;;;5.91;100.00
4858;BME280;58975;51.978;8.472;2023-01-15T10:59:49;98607.56;;;6.05;100.00
4858;BME280;58975;51.978;8.472;2023-01-15T11:04:47;98610.63;;;6.00;100.00
4858;BME280;58975;51.978;8.472;2023-01-15T11:09:44;98594.91;;;5.89;100.00
4858;BME280;58975;51.978;8.472;2023-01-15T11:14:42;98597.53;;;5.89;100.00
4858;BME280;58975;51.978;8.472;2023-01-15T11:19:57;98601.19;;;5.98;100.00
4858;BME280;58975;51.978;8.472;2023-01-15T11:24:56;98616.75;;;5.91;100.00
4858;BME280;58975;51.978;8.472;2023-01-15T11:29:56;98612.44;;;5.90;100.00
4858;BME280;58975;51.978;8.472;2023-01-15T11:34:55;98621.47;;;5.97;100.00
4858;BME280;58975;51.978;8.472;2023-01-15T11:39:56;98610.22;;;6.05;100.00
4858;BME280;58975;51.978;8.472;2023-01-15T11:44:55;98604.38;;;6.11;100.00
4858;BME280;58975;51.978;8.472;2023-01-15T11:50:17;98620.22;;;6.21;100.00
4858;BME280;58975;51.978;8.472;2023-01-15T11:55:32;98609.66;;;6.21;100.00
4858;BME280;58975;51.978;8.472;2023-01-15T12:00:35;98618.00;;;6.06;100.00
4858;BME280;58975;51.978;8.472;2023-01-15T12:05:36;98613.53;;;5.97;100.00
4858;BME280;58975;51.978;8.472;2023-01-15T12:10:37;98605.63;;;5.97;100.00
4858;BME280;58975;51.978;8.472;2023-01-15T12:21:15;98608.97;;;6.18;100.00
4858;BME280;58975;51.978;8.472;2023-01-15T12:26:24;98603.41;;;6.12;100.00
4858;BME280;58975;51.978;8.472;2023-01-15T12:31:48;98595.88;;;6.17;100.00
4858;BME280;58975;51.978;8.472;2023-01-15T12:36:57;98598.81;;;6.04;100.00
4858;BME280;58975;51.978;8.472;2023-01-15T12:41:58;98593.13;;;5.99;100.00
4858;BME280;58975;51.978;8.472;2023-01-15T12:47:18;98584.47;;;5.97;100.00
4858;BME280;58975;51.978;8.472;2023-01-15T12:52:22;98587.81;;;5.90;100.00
4858;BME280;58975;51.978;8.472;2023-01-15T12:57:33;98585.06;;;5.91;100.00
4858;BME280;58975;51.978;8.472;2023-01-15T13:12:51;98600.63;;;5.94;100.00
4858;BME280;58975;51.978;8.472;2023-01-15T13:28:41;98588.94;;;6.06;100.00
4858;BME280;58975;51.978;8.472;2023-01-15T13:33:43;98589.09;;;6.14;100.00
4858;BME280;58975;51.978;8.472;2023-01-15T13:38:44;98594.09;;;6.27;100.00
4858;BME280;58975;51.978;8.472;2023-01-15T13:43:43;98599.25;;;6.19;100.00
4858;BME280;58975;51.978;8.472;2023-01-15T13:48:45;98607.31;;;6.17;100.00
4858;BME280;58975;51.978;8.472;2023-01-15T13:53:45;98613.16;;;6.11;100.00
4858;BME280;58975;51.978;8.472;2023-01-15T13:58:59;98606.72;;;6.04;100.00
4858;BME280;58975;51.978;8.472;2023-01-15T14:04:06;98604.25;;;6.03;100.00
4858;BME280;58975;51.978;8.472;2023-01-15T14:09:12;98612.59;;;5.98;100.00
4858;BME280;58975;51.978;8.472;2023-01-15T14:20:12;98610.91;;;5.88;100.00
4858;BME280;58975;51.978;8.472;2023-01-15T14:30:15;98630.75;;;5.82;100.00
4858;BME280;58975;51.978;8.472;2023-01-15T14:35:18;98628.94;;;5.83;100.00
4858;BME280;58975;51.978;8.472;2023-01-15T14:40:20;98635.47;;;5.79;100.00
4858;BME280;58975;51.978;8.472;2023-01-15T14:45:24;98629.34;;;5.78;100.00
4858;BME280;58975;51.978;8.472;2023-01-15T14:50:26;98651.19;;;5.80;100.00
4858;BME280;58975;51.978;8.472;2023-01-15T14:55:23;98654.50;;;5.82;100.00
4858;BME280;58975;51.978;8.472;2023-01-15T15:00:21;98669.53;;;5.82;100.00
4858;BME280;58975;51.978;8.472;2023-01-15T15:05:20;98660.06;;;5.79;100.00
4858;BME280;58975;51.978;8.472;2023-01-15T15:10:36;98672.00;;;5.73;100.00
4858;BME280;58975;51.978;8.472;2023-01-15T15:15:49;98667.56;;;5.74;100.00
4858;BME280;58975;51.978;8.472;2023-01-15T15:20:52;98676.44;;;5.73;100.00
4858;BME280;58975;51.978;8.472;2023-01-15T15:25:59;98669.81;;;5.79;100.00
4858;BME280;58975;51.978;8.472;2023-01-15T15:30:57;98664.53;;;5.79;100.00
4858;BME280;58975;51.978;8.472;2023-01-15T15:35:59;98682.59;;;5.83;100.00
4858;BME280;58975;51.978;8.472;2023-01-15T15:41:03;98678.56;;;5.79;100.00
4858;BME280;58975;51.978;8.472;2023-01-15T15:46:00;98675.38;;;5.85;100.00
4858;BME280;58975;51.978;8.472;2023-01-15T15:51:44;98681.25;;;5.89;100.00
4858;BME280;58975;51.978;8.472;2023-01-15T15:56:52;98669.59;;;5.91;100.00
4858;BME280;58975;51.978;8.472;2023-01-15T16:01:50;98666.78;;;5.93;100.00
4858;BME280;58975;51.978;8.472;2023-01-15T16:06:47;98687.66;;;5.86;100.00
4858;BME280;58975;51.978;8.472;2023-01-15T16:11:44;98687.38;;;5.89;100.00
4858;BME280;58975;51.978;8.472;2023-01-15T16:16:40;98684.69;;;5.80;100.00
4858;BME280;58975;51.978;8.472;2023-01-15T16:21:40;98681.47;;;5.76;100.00
4858;BME280;58975;51.978;8.472;2023-01-15T16:26:44;98683.13;;;5.77;100.00
4858;BME280;58975;51.978;8.472;2023-01-15T16:31:42;98692.72;;;5.78;100.00
4858;BME280;58975;51.978;8.472;2023-01-15T16:36:40;98697.06;;;5.79;100.00
4858;BME280;58975;51.978;8.472;2023-01-15T16:41:38;98702.34;;;5.79;100.00
4858;BME280;58975;51.978;8.472;2023-01-15T16:46:48;98691.91;;;5.78;100.00
4858;BME280;58975;51.978;8.472;2023-01-15T16:51:48;98697.34;;;5.76;100.00
4858;BME280;58975;51.978;8.472;2023-01-15T16:56:50;98714.81;;;5.77;100.00
4858;BME280;58975;51.978;8.472;2023-01-15T17:01:48;98711.50;;;5.75;100.00
4858;BME280;58975;51.978;8.472;2023-01-15T17:06:55;98710.25;;;5.79;100.00
4858;BME280;58975;51.978;8.472;2023-01-15T17:11:53;98709.53;;;5.77;100.00
4858;BME280;58975;51.978;8.472;2023-01-15T17:22:13;98725.66;;;5.64;100.00
4858;BME280;58975;51.978;8.472;2023-01-15T17:27:10;98724.81;;;5.64;100.00
4858;BME280;58975;51.978;8.472;2023-01-15T17:32:24;98723.91;;;5.54;100.00
4858;BME280;58975;51.978;8.472;2023-01-15T17:37:23;98720.44;;;5.53;100.00
4858;BME280;58975;51.978;8.472;2023-01-15T17:42:20;98717.78;;;5.44;100.00
4858;BME280;58975;51.978;8.472;2023-01-15T17:47:16;98717.50;;;5.47;100.00
4858;BME280;58975;51.978;8.472;2023-01-15T17:52:17;98729.16;;;5.44;100.00
4858;BME280;58975;51.978;8.472;2023-01-15T17:57:14;98733.34;;;5.47;100.00
4858;BME280;58975;51.978;8.472;2023-01-15T18:02:29;98737.13;;;5.54;100.00
4858;BME280;58975;51.978;8.472;2023-01-15T18:07:45;98743.97;;;5.56;100.00
4858;BME280;58975;51.978;8.472;2023-01-15T18:12:41;98744.53;;;5.60;100.00
4858;BME280;58975;51.978;8.472;2023-01-15T18:17:38;98754.38;;;5.58;100.00
4858;BME280;58975;51.978;8.472;2023-01-15T18:22:34;98764.94;;;5.58;100.00
4858;BME280;58975;51.978;8.472;2023-01-15T18:27:31;98765.88;;;5.57;100.00
4858;BME280;58975;51.978;8.472;2023-01-15T18:32:28;98767.56;;;5.58;100.00
4858;BME280;58975;51.978;8.472;2023-01-15T18:37:26;98772.84;;;5.58;100.00
4858;BME280;58975;51.978;8.472;2023-01-15T18:42:22;98773.66;;;5.49;100.00
4858;BME280;58975;51.978;8.472;2023-01-15T18:47:37;98756.97;;;5.48;100.00
4858;BME280;58975;51.978;8.472;2023-01-15T18:52:36;98764.31;;;5.45;100.00
4858;BME280;58975;51.978;8.472;2023-01-15T18:57:47;98764.44;;;5.43;100.00
4858;BME280;58975;51.978;8.472;2023-01-15T19:02:44;98777.53;;;5.45;100.00
4858;BME280;58975;51.978;8.472;2023-01-15T19:07:41;98770.03;;;5.50;100.00
4858;BME280;58975;51.978;8.472;2023-01-15T19:12:38;98766.69;;;5.48;100.00
4858;BME280;58975;51.978;8.472;2023-01-15T19:17:35;98777.09;;;5.49;100.00
4858;BME280;58975;51.978;8.472;2023-01-15T19:22:50;98764.91;;;5.48;100.00
4858;BME280;58975;51.978;8.472;2023-01-15T19:27:56;98773.84;;;5.36;100.00
4858;BME280;58975;51.978;8.472;2023-01-15T19:32:54;98771.88;;;5.29;100.00
4858;BME280;58975;51.978;8.472;2023-01-15T19:37:51;98770.69;;;5.21;100.00
4858;BME280;58975;51.978;8.472;2023-01-15T19:42:50;98765.19;;;5.24;100.00
4858;BME280;58975;51.978;8.472;2023-01-15T19:48:13;98766.25;;;5.22;100.00
4858;BME280;58975;51.978;8.472;2023-01-15T19:53:29;98774.59;;;5.17;100.00
4858;BME280;58975;51.978;8.472;2023-01-15T19:58:26;98776.97;;;5.20;100.00
4858;BME280;58975;51.978;8.472;2023-01-15T20:03:22;98768.19;;;5.20;100.00
4858;BME280;58975;51.978;8.472;2023-01-15T20:08:19;98768.78;;;5.23;100.00
4858;BME280;58975;51.978;8.472;2023-01-15T20:13:18;98758.78;;;5.27;100.00
4858;BME280;58975;51.978;8.472;2023-01-15T20:18:33;98763.56;;;5.33;100.00
4858;BME280;58975;51.978;8.472;2023-01-15T20:23:30;98753.69;;;5.35;100.00
4858;BME280;58975;51.978;8.472;2023-01-15T20:28:27;98770.88;;;5.30;100.00
4858;BME280;58975;51.978;8.472;2023-01-15T20:33:23;98750.88;;;5.27;100.00
4858;BME280;58975;51.978;8.472;2023-01-15T20:38:21;98750.41;;;5.22;100.00
4858;BME280;58975;51.978;8.472;2023-01-15T20:43:19;98761.97;;;5.21;100.00
4858;BME280;58975;51.978;8.472;2023-01-15T20:48:34;98758.28;;;5.12;100.00
4858;BME280;58975;51.978;8.472;2023-01-15T20:53:49;98747.81;;;5.01;100.00
4858;BME280;58975;51.978;8.472;2023-01-15T20:58:48;98743.88;;;4.96;100.00
4858;BME280;58975;51.978;8.472;2023-01-15T21:03:46;98733.69;;;4.91;100.00
4858;BME280;58975;51.978;8.472;2023-01-15T21:08:43;98728.44;;;4.91;100.00
4858;BME280;58975;51.978;8.472;2023-01-15T21:13:41;98716.59;;;4.86;100.00
4858;BME280;58975;51.978;8.472;2023-01-15T21:18:40;98717.19;;;4.89;100.00
4858;BME280;58975;51.978;8.472;2023-01-15T21:23:40;98721.22;;;4.93;100.00
4858;BME280;58975;51.978;8.472;2023-01-15T21:28:38;98714.75;;;4.97;100.00
4858;BME280;58975;51.978;8.472;2023-01-15T21:33:35;98712.34;;;4.94;100.00
4858;BME280;58975;51.978;8.472;2023-01-15T21:38:31;98704.19;;;4.97;100.00
4858;BME280;58975;51.978;8.472;2023-01-15T21:43:28;98705.97;;;4.97;100.00
4858;BME280;58975;51.978;8.472;2023-01-15T21:48:43;98711.25;;;4.97;100.00
4858;BME280;58975;51.978;8.472;2023-01-15T21:53:39;98704.22;;;4.86;100.00
4858;BME280;58975;51.978;8.472;2023-01-15T21:58:37;98695.81;;;4.92;100.00
4858;BME280;58975;51.978;8.472;2023-01-15T22:03:34;98692.53;;;4.79;100.00
4858;BME280;58975;51.978;8.472;2023-01-15T22:08:31;98692.22;;;4.72;100.00
4858;BME280;58975;51.978;8.472;2023-01-15T22:13:28;98695.50;;;4.65;100.00
4858;BME280;58975;51.978;8.472;2023-01-15T22:18:25;98693.34;;;4.59;100.00
4858;BME280;58975;51.978;8.472;2023-01-15T22:23:21;98680.63;;;4.64;100.00
4858;BME280;58975;51.978;8.472;2023-01-15T22:28:18;98674.47;;;4.54;100.00
4858;BME280;58975;51.978;8.472;2023-01-15T22:33:15;98665.56;;;4.55;100.00
4858;BME280;58975;51.978;8.472;2023-01-15T22:38:12;98651.13;;;4.49;100.00
4858;BME280;58975;51.978;8.472;2023-01-15T22:43:09;98643.47;;;4.46;100.00
4858;BME280;58975;51.978;8.472;2023-01-15T22:48:05;98632.41;;;4.52;100.00
4858;BME280;58975;51.978;8.472;2023-01-15T22:53:02;98631.19;;;4.56;100.00
4858;BME280;58975;51.978;8.472;2023-01-15T22:57:58;98622.44;;;4.56;100.00
4858;BME280;58975;51.978;8.472;2023-01-15T23:02:54;98615.94;;;4.60;100.00
4858;BME280;58975;51.978;8.472;2023-01-15T23:07:51;98618.56;;;4.60;100.00
4858;BME280;58975;51.978;8.472;2023-01-15T23:12:47;98607.34;;;4.58;100.00
4858;BME280;58975;51.978;8.472;2023-01-15T23:17:44;98592.09;;;4.61;100.00
4858;BME280;58975;51.978;8.472;2023-01-15T23:22:40;98593.69;;;4.53;100.00
4858;BME280;58975;51.978;8.472;2023-01-15T23:27:37;98584.84;;;4.54;100.00
4858;BME280;58975;51.978;8.472;2023-01-15T23:32:33;98581.75;;;4.49;100.00
4858;BME280;58975;51.978;8.472;2023-01-15T23:37:30;98573.00;;;4.48;100.00
4858;BME280;58975;51.978;8.472;2023-01-15T23:42:26;98575.50;;;4.50;100.00
4858;BME280;58975;51.978;8.472;2023-01-15T23:47:41;98568.75;;;4.57;100.00
4858;BME280;58975;51.978;8.472;2023-01-15T23:52:37;98564.44;;;4.56;100.00
4858;BME280;58975;51.978;8.472;2023-01-15T23:57:34;98561.88;;;4.45;100.00
